createdAt,value
2022-11-03T00:01:56.763Z,12.05
2022-11-03T00:04:26.114Z,11.85
2022-11-03T00:06:56.492Z,11.73
2022-11-03T00:09:27.277Z,10.73
2022-11-03T00:11:56.682Z,12.18
2022-11-03T00:14:27.177Z,11.38
2022-11-03T00:16:56.487Z,11.75
2022-11-03T00:19:25.573Z,11.77
2022-11-03T00:21:54.890Z,12.48
2022-11-03T00:24:27.275Z,11.65
2022-11-03T00:26:56.461Z,12.35
2022-11-03T00:29:26.981Z,12.77
2022-11-03T00:31:56.157Z,13.55
2022-11-03T00:34:25.452Z,11.90
2022-11-03T00:36:55.822Z,11.93
2022-11-03T00:39:24.762Z,11.55
2022-11-03T00:41:53.856Z,12.18
2022-11-03T00:44:22.905Z,12.95
2022-11-03T00:46:52.902Z,11.15
2022-11-03T00:49:21.912Z,13.13
2022-11-03T00:51:51.405Z,13.45
2022-11-03T00:54:20.357Z,12.30
2022-11-03T00:56:49.282Z,12.77
2022-11-03T00:59:28.711Z,13.10
2022-11-03T01:02:02.501Z,12.48
2022-11-03T01:04:49.185Z,13.75
2022-11-03T01:07:22.445Z,13.13
2022-11-03T01:09:51.426Z,14.27
2022-11-03T01:12:20.912Z,12.40
2022-11-03T01:14:51.558Z,14.07
2022-11-03T01:17:34.099Z,13.30
2022-11-03T01:20:03.747Z,13.20
2022-11-03T01:22:32.589Z,13.88
2022-11-03T01:25:01.770Z,14.48
2022-11-03T01:27:30.755Z,13.38
2022-11-03T01:30:00.064Z,14.48
2022-11-03T01:32:30.869Z,13.77
2022-11-03T01:34:59.888Z,14.52
2022-11-03T01:37:28.780Z,14.93
2022-11-03T01:39:57.566Z,14.88
2022-11-03T01:42:26.543Z,15.50
2022-11-03T01:44:55.714Z,15.13
2022-11-03T01:47:29.318Z,16.75
2022-11-03T01:50:04.479Z,14.77
2022-11-03T01:52:37.998Z,16.15
2022-11-03T01:55:11.780Z,15.80
2022-11-03T01:57:44.563Z,15.85
2022-11-03T02:00:15.022Z,14.93
2022-11-03T02:02:44.936Z,14.23
2022-11-03T02:05:17.023Z,15.52
2022-11-03T02:07:53.050Z,15.95
2022-11-03T02:10:23.442Z,14.57
2022-11-03T02:12:53.670Z,15.82
2022-11-03T02:15:24.488Z,15.13
2022-11-03T02:17:56.189Z,14.55
2022-11-03T02:20:28.930Z,13.95
2022-11-03T02:23:13.484Z,15.50
2022-11-03T02:25:49.043Z,13.32
2022-11-03T02:28:20.298Z,13.13
2022-11-03T02:31:10.117Z,15.57
2022-11-03T02:33:51.370Z,14.80
2022-11-03T02:36:25.918Z,13.88
2022-11-03T02:39:01.173Z,13.38
2022-11-03T02:41:35.748Z,14.95
2022-11-03T02:44:09.462Z,13.73
2022-11-03T02:49:12.907Z,13.15
2022-11-03T02:51:42.862Z,13.43
2022-11-03T02:54:17.605Z,14.88
2022-11-03T02:56:52.689Z,13.18
2022-11-03T02:59:28.826Z,13.57
2022-11-03T03:02:04.653Z,13.05
2022-11-03T03:04:38.508Z,12.77
2022-11-03T03:09:43.108Z,14.32
2022-11-03T03:12:17.195Z,13.95
2022-11-03T03:14:48.464Z,13.90
2022-11-03T03:17:25.327Z,14.18
2022-11-03T03:20:03.236Z,14.10
2022-11-03T03:22:41.589Z,12.65
2022-11-03T03:25:16.197Z,13.25
2022-11-03T03:27:50.303Z,13.63
2022-11-03T03:30:20.183Z,13.63
2022-11-03T03:32:52.689Z,14.07
2022-11-03T03:35:25.158Z,12.65
2022-11-03T03:38:04.565Z,13.43
2022-11-03T03:40:37.781Z,14.27
2022-11-03T03:43:11.305Z,14.57
2022-11-03T03:45:44.612Z,12.70
2022-11-03T03:48:16.748Z,14.52
2022-11-03T03:50:48.299Z,13.70
2022-11-03T03:53:19.955Z,13.88
2022-11-03T03:55:51.024Z,14.30
2022-11-03T03:58:21.308Z,14.27
2022-11-03T04:00:53.505Z,13.88
2022-11-03T04:03:24.625Z,13.52
2022-11-03T04:05:55.098Z,13.55
2022-11-03T04:08:24.450Z,14.80
2022-11-03T04:11:11.101Z,14.18
2022-11-03T04:13:59.378Z,15.45
2022-11-03T04:16:46.271Z,15.50
2022-11-03T04:19:33.777Z,15.70
2022-11-03T04:22:18.336Z,15.48
2022-11-03T04:24:48.493Z,15.82
2022-11-03T04:27:38.732Z,16.55
2022-11-03T04:30:16.961Z,15.95
2022-11-03T04:32:47.640Z,16.35
2022-11-03T04:35:20.609Z,16.65
2022-11-03T04:37:53.433Z,15.65
2022-11-03T04:40:22.678Z,16.85
2022-11-03T04:42:51.784Z,15.38
2022-11-03T04:45:30.041Z,15.05
2022-11-03T04:48:03.038Z,14.02
2022-11-03T04:50:32.309Z,15.27
2022-11-03T04:53:02.302Z,15.15
2022-11-03T04:55:32.578Z,15.10
2022-11-03T04:58:06.283Z,15.68
2022-11-03T05:00:36.827Z,16.50
2022-11-03T05:03:06.435Z,15.80
2022-11-03T05:05:40.381Z,15.23
2022-11-03T05:10:39.645Z,13.95
2022-11-03T05:13:18.088Z,16.25
2022-11-03T05:15:50.961Z,16.33
2022-11-03T05:21:07.577Z,18.10
2022-11-03T05:23:40.931Z,18.83
2022-11-03T05:26:18.218Z,16.40
2022-11-03T05:28:53.095Z,15.50
2022-11-03T05:31:27.380Z,16.42
2022-11-03T05:34:01.917Z,24.60
2022-11-03T05:36:32.608Z,20.40
2022-11-03T05:39:16.197Z,17.40
2022-11-03T05:41:45.812Z,15.88
2022-11-03T05:44:29.230Z,16.38
2022-11-03T05:47:04.465Z,14.85
2022-11-03T05:49:36.598Z,15.00
2022-11-03T05:52:07.407Z,15.82
2022-11-03T05:54:37.115Z,15.88
2022-11-03T05:57:11.952Z,14.90
2022-11-03T05:59:42.565Z,16.27
2022-11-03T06:02:30.037Z,14.30
2022-11-03T06:04:59.608Z,14.95
2022-11-03T06:07:32.819Z,14.15
2022-11-03T06:10:01.797Z,13.20
2022-11-03T06:12:31.875Z,13.30
2022-11-03T06:15:01.112Z,12.13
2022-11-03T06:17:31.817Z,12.77
2022-11-03T06:20:03.004Z,11.48
2022-11-03T06:22:37.209Z,11.80
2022-11-03T06:25:19.971Z,10.77
2022-11-03T06:27:50.524Z,10.65
2022-11-03T06:30:25.484Z,10.10
2022-11-03T06:32:59.036Z,10.38
2022-11-03T06:35:28.361Z,9.50
2022-11-03T06:37:58.630Z,9.32
2022-11-03T06:40:39.107Z,8.73
2022-11-03T06:43:17.893Z,8.07
2022-11-03T06:45:55.757Z,9.32
2022-11-03T06:48:29.666Z,8.70
2022-11-03T06:51:00.772Z,8.10
2022-11-03T06:53:33.894Z,7.82
2022-11-03T06:56:03.352Z,7.57
2022-11-03T06:58:35.871Z,7.50
2022-11-03T07:01:13.707Z,7.68
2022-11-03T07:03:44.749Z,7.55
2022-11-03T07:06:19.001Z,7.97
2022-11-03T07:08:51.467Z,7.20
2022-11-03T07:11:22.526Z,8.60
2022-11-03T07:13:54.164Z,7.47
2022-11-03T07:16:29.326Z,7.55
2022-11-03T07:19:01.370Z,7.45
2022-11-03T07:21:37.606Z,7.07
2022-11-03T07:24:16.851Z,7.47
2022-11-03T07:26:45.908Z,7.25
2022-11-03T07:29:21.917Z,7.25
2022-11-03T07:31:55.668Z,7.43
2022-11-03T07:34:32.748Z,7.90
2022-11-03T07:37:02.345Z,8.05
2022-11-03T07:39:39.278Z,8.00
2022-11-03T07:42:16.658Z,7.88
2022-11-03T07:44:45.702Z,8.20
2022-11-03T07:47:17.561Z,8.95
2022-11-03T07:49:48.672Z,9.50
2022-11-03T07:52:21.675Z,8.88
2022-11-03T07:54:51.989Z,9.52
2022-11-03T07:57:24.529Z,9.75
2022-11-03T07:59:54.991Z,9.55
2022-11-03T08:02:32.030Z,9.20
2022-11-03T08:05:02.910Z,8.40
2022-11-03T08:07:32.854Z,10.60
2022-11-03T08:10:02.010Z,9.18
2022-11-03T08:12:31.015Z,10.13
2022-11-03T08:15:00.588Z,9.57
2022-11-03T08:17:29.541Z,9.10
2022-11-03T08:19:58.805Z,8.43
2022-11-03T08:22:30.073Z,8.60
2022-11-03T08:24:59.083Z,8.25
2022-11-03T08:27:28.356Z,8.30
2022-11-03T08:29:59.405Z,7.72
2022-11-03T08:32:31.434Z,8.27
2022-11-03T08:35:00.413Z,8.38
2022-11-03T08:37:32.073Z,7.70
2022-11-03T08:40:01.124Z,7.75
2022-11-03T08:42:30.084Z,6.57
2022-11-03T08:45:00.638Z,7.63
2022-11-03T08:47:29.850Z,6.05
2022-11-03T08:49:59.032Z,6.82
2022-11-03T08:52:28.459Z,7.05
2022-11-03T08:54:58.743Z,6.20
2022-11-03T08:57:27.597Z,6.75
2022-11-03T08:59:56.910Z,6.25
2022-11-03T09:02:26.297Z,6.28
2022-11-03T09:04:55.509Z,5.82
2022-11-03T09:07:24.815Z,6.75
2022-11-03T09:12:44.629Z,6.18
2022-11-03T09:15:13.596Z,5.57
2022-11-03T09:17:44.774Z,5.65
2022-11-03T09:20:15.294Z,5.13
2022-11-03T09:22:44.184Z,4.85
2022-11-03T09:25:13.182Z,4.88
2022-11-03T09:28:31.104Z,4.45
2022-11-03T09:31:00.045Z,5.45
2022-11-03T09:33:46.922Z,3.60
2022-11-03T09:36:16.219Z,3.13
2022-11-03T09:38:45.336Z,2.30
2022-11-03T09:41:26.187Z,2.28
2022-11-03T09:44:00.586Z,2.03
2022-11-03T09:46:31.031Z,2.80
2022-11-03T09:49:00.447Z,1.95
2022-11-03T09:51:30.243Z,2.40
2022-11-03T09:54:03.152Z,2.00
2022-11-03T09:56:32.851Z,1.85
2022-11-03T09:59:03.373Z,1.42
2022-11-03T10:01:35.460Z,1.77
2022-11-03T10:04:14.492Z,2.03
2022-11-03T10:06:43.794Z,2.33
2022-11-03T10:09:18.936Z,1.90
2022-11-03T10:11:48.863Z,2.35
2022-11-03T10:14:23.358Z,2.15
2022-11-03T10:17:00.575Z,2.03
2022-11-03T10:19:30.287Z,2.05
2022-11-03T10:21:59.397Z,1.65
2022-11-03T10:24:28.242Z,1.70
2022-11-03T10:26:57.190Z,1.88
2022-11-03T10:29:33.419Z,1.50
2022-11-03T10:32:05.383Z,1.10
2022-11-03T10:34:41.231Z,1.70
2022-11-03T10:37:29.413Z,1.40
2022-11-03T10:39:59.858Z,2.00
2022-11-03T10:42:35.477Z,2.20
2022-11-03T10:45:18.318Z,1.95
2022-11-03T10:48:03.335Z,2.20
2022-11-03T10:50:32.324Z,2.47
2022-11-03T10:53:01.271Z,2.50
2022-11-03T10:55:30.351Z,2.60
2022-11-03T10:58:01.340Z,2.22
2022-11-03T11:00:33.348Z,2.10
2022-11-03T11:03:02.833Z,1.70
2022-11-03T11:05:31.868Z,2.42
2022-11-03T11:08:02.391Z,1.60
2022-11-03T11:10:35.168Z,1.85
2022-11-03T11:13:07.009Z,1.83
2022-11-03T11:15:40.818Z,1.90
2022-11-03T11:18:10.804Z,1.98
2022-11-03T11:20:41.689Z,1.77
2022-11-03T11:23:53.099Z,1.98
2022-11-03T11:26:35.829Z,1.80
2022-11-03T11:29:45.103Z,2.17
2022-11-03T11:32:50.551Z,2.00
2022-11-03T11:36:02.661Z,3.80
2022-11-03T11:39:03.494Z,4.28
2022-11-03T11:42:13.928Z,2.97
2022-11-03T11:44:58.205Z,2.90
2022-11-03T11:47:34.001Z,2.92
2022-11-03T11:50:38.808Z,2.90
2022-11-03T11:53:14.413Z,2.60
2022-11-03T11:55:50.589Z,3.00
2022-11-03T11:58:28.594Z,2.63
2022-11-03T12:01:02.701Z,2.00
2022-11-03T12:03:42.668Z,2.45
2022-11-03T12:06:14.451Z,2.10
2022-11-03T12:08:44.679Z,2.47
2022-11-03T12:11:16.834Z,2.00
2022-11-03T12:13:49.267Z,2.50
2022-11-03T12:16:30.236Z,2.72
2022-11-03T12:19:40.813Z,2.92
2022-11-03T12:22:11.802Z,2.35
2022-11-03T12:24:51.070Z,2.40
2022-11-03T12:27:44.679Z,2.10
2022-11-03T12:30:16.773Z,2.25
2022-11-03T12:32:50.774Z,2.42
2022-11-03T12:35:20.032Z,2.30
2022-11-03T12:37:49.399Z,2.22
2022-11-03T12:40:19.514Z,2.58
2022-11-03T12:42:50.915Z,2.30
2022-11-03T12:45:24.169Z,2.17
2022-11-03T12:47:54.074Z,2.40
2022-11-03T12:50:23.657Z,2.15
2022-11-03T12:52:55.632Z,2.38
2022-11-03T12:55:25.670Z,2.47
2022-11-03T12:57:57.526Z,2.20
2022-11-03T13:00:27.097Z,2.47
2022-11-03T13:02:56.481Z,2.40
2022-11-03T13:05:26.056Z,2.78
2022-11-03T13:07:55.835Z,2.38
2022-11-03T13:10:25.420Z,2.75
2022-11-03T13:12:57.088Z,3.15
2022-11-03T13:15:26.239Z,3.38
2022-11-03T13:18:12.816Z,3.53
2022-11-03T13:20:45.098Z,3.65
2022-11-03T13:23:17.442Z,3.67
2022-11-03T13:25:49.724Z,4.00
2022-11-03T13:28:19.915Z,4.20
2022-11-03T13:30:49.524Z,4.38
2022-11-03T13:33:18.493Z,4.45
2022-11-03T13:35:49.314Z,4.55
2022-11-03T13:38:18.692Z,4.50
2022-11-03T13:40:56.599Z,4.15
2022-11-03T13:43:29.184Z,3.80
2022-11-03T13:46:02.511Z,3.92
2022-11-03T13:51:24.405Z,3.75
2022-11-03T13:59:35.544Z,3.55
2022-11-03T14:04:57.056Z,3.92
2022-11-03T14:07:27.104Z,4.15
2022-11-03T14:09:58.071Z,4.53
2022-11-03T14:12:32.909Z,4.68
2022-11-03T14:19:20.877Z,4.13
2022-11-03T14:21:50.028Z,4.95
2022-11-03T14:24:18.947Z,4.30
2022-11-03T14:26:48.451Z,4.97
2022-11-03T14:29:17.613Z,4.60
2022-11-03T14:31:48.110Z,5.40
2022-11-03T14:34:17.230Z,4.22
2022-11-03T14:36:46.635Z,3.42
2022-11-03T14:39:16.249Z,3.72
2022-11-03T14:42:03.090Z,3.20
2022-11-03T14:44:32.708Z,2.80
2022-11-03T14:47:04.863Z,2.88
2022-11-03T14:49:47.353Z,2.80
2022-11-03T14:52:17.871Z,3.25
2022-11-03T14:54:46.972Z,2.53
2022-11-03T14:57:16.281Z,2.95
2022-11-03T14:59:48.022Z,2.30
2022-11-03T15:02:22.641Z,2.40
2022-11-03T15:04:51.813Z,2.35
2022-11-03T15:07:21.156Z,2.92
2022-11-03T15:09:50.531Z,2.25
2022-11-03T15:12:21.532Z,2.65
2022-11-03T15:14:51.550Z,3.30
2022-11-03T15:17:22.348Z,3.03
2022-11-03T15:19:51.363Z,2.90
2022-11-03T15:22:20.431Z,3.30
2022-11-03T15:27:39.060Z,3.30
2022-11-03T15:30:09.682Z,3.30
2022-11-03T15:32:39.999Z,2.90
2022-11-03T15:35:10.551Z,2.85
2022-11-03T15:37:39.809Z,3.00
2022-11-03T15:40:18.164Z,2.63
2022-11-03T15:42:47.239Z,2.80
2022-11-03T15:45:16.675Z,3.00
2022-11-03T15:47:47.125Z,2.90
2022-11-03T15:50:16.858Z,2.90
2022-11-03T15:52:46.065Z,2.92
2022-11-03T15:55:15.457Z,3.10
2022-11-03T15:57:44.759Z,2.90
2022-11-03T16:00:14.687Z,3.20
2022-11-03T16:02:43.912Z,3.20
2022-11-03T16:05:14.723Z,3.65
2022-11-03T16:07:43.939Z,3.03
2022-11-03T16:10:13.016Z,3.58
2022-11-03T16:12:43.168Z,3.83
2022-11-03T16:15:12.531Z,4.45
2022-11-03T16:17:45.553Z,4.50
2022-11-03T16:20:16.390Z,4.40
2022-11-03T16:22:45.271Z,4.40
2022-11-03T16:25:16.681Z,4.60
2022-11-03T16:30:16.781Z,4.22
2022-11-03T16:32:45.830Z,4.78
2022-11-03T16:35:16.076Z,4.97
2022-11-03T16:37:46.737Z,4.68
2022-11-03T16:40:19.406Z,4.75
2022-11-03T16:42:49.141Z,4.75
2022-11-03T16:45:20.145Z,4.75
2022-11-03T16:47:52.735Z,4.57
2022-11-03T16:50:23.249Z,4.70
2022-11-03T16:52:52.459Z,4.80
2022-11-03T16:55:21.686Z,4.43
2022-11-03T16:57:51.982Z,4.75
2022-11-03T17:00:21.660Z,4.90
2022-11-03T17:02:51.159Z,4.72
2022-11-03T17:05:21.872Z,3.97
2022-11-03T17:07:54.219Z,4.13
2022-11-03T17:10:24.260Z,4.00
2022-11-03T17:12:53.702Z,3.40
2022-11-03T17:15:22.621Z,3.63
2022-11-03T17:17:51.995Z,3.38
2022-11-03T17:20:20.795Z,3.53
2022-11-03T17:22:51.016Z,3.95
2022-11-03T17:25:20.236Z,4.30
2022-11-03T17:27:52.540Z,3.47
2022-11-03T17:30:24.159Z,3.70
2022-11-03T17:35:02.313Z,3.55
2022-11-03T17:36:51.720Z,3.80
2022-11-03T17:39:28.720Z,3.78
2022-11-03T17:42:13.326Z,4.18
2022-11-03T17:44:43.534Z,3.83
2022-11-03T17:47:12.950Z,3.30
2022-11-03T17:49:44.182Z,3.47
2022-11-03T17:52:23.469Z,3.75
2022-11-03T17:55:00.403Z,3.90
2022-11-03T17:57:30.171Z,4.03
2022-11-03T18:00:02.184Z,4.75
2022-11-03T18:02:42.096Z,5.72
2022-11-03T18:05:22.156Z,3.92
2022-11-03T18:07:52.988Z,3.60
2022-11-03T18:10:27.596Z,3.40
2022-11-03T18:13:18.708Z,3.22
2022-11-03T18:15:58.051Z,3.22
2022-11-03T18:18:32.128Z,3.70
2022-11-03T18:21:01.934Z,3.20
2022-11-03T18:23:33.117Z,3.47
2022-11-03T18:26:05.734Z,3.20
2022-11-03T18:28:35.554Z,2.53
2022-11-03T18:31:05.059Z,2.83
2022-11-03T18:33:37.439Z,3.15
2022-11-03T18:36:09.810Z,2.72
2022-11-03T18:38:42.271Z,3.17
2022-11-03T18:41:36.441Z,2.97
2022-11-03T18:46:44.076Z,3.33
2022-11-03T18:49:13.664Z,2.92
2022-11-03T18:51:49.000Z,3.35
2022-11-03T18:54:23.023Z,3.67
2022-11-03T18:56:55.536Z,3.70
2022-11-03T18:59:27.419Z,3.85
2022-11-03T19:01:59.334Z,3.85
2022-11-03T19:04:29.185Z,4.03
2022-11-03T19:06:58.658Z,3.85
2022-11-03T19:09:28.566Z,3.50
2022-11-03T19:11:59.685Z,3.58
2022-11-03T19:14:32.280Z,3.78
2022-11-03T19:19:55.416Z,4.18
2022-11-03T19:22:26.427Z,4.35
2022-11-03T19:24:55.961Z,4.00
2022-11-03T19:27:28.920Z,4.00
2022-11-03T19:30:01.350Z,5.03
2022-11-03T19:32:34.754Z,4.72
2022-11-03T19:35:07.530Z,3.97
2022-11-03T19:37:36.886Z,4.57
2022-11-03T19:40:09.582Z,4.85
2022-11-03T19:42:39.843Z,3.90
2022-11-03T19:45:16.357Z,4.35
2022-11-03T19:48:18.121Z,4.60
2022-11-03T19:50:42.286Z,4.25
2022-11-03T19:53:22.522Z,3.88
2022-11-03T19:56:03.594Z,3.45
2022-11-03T19:58:35.961Z,3.92
2022-11-03T20:01:08.655Z,4.85
2022-11-03T20:10:22.357Z,4.40
2022-11-03T20:12:58.867Z,3.95
2022-11-03T20:15:46.027Z,4.13
2022-11-03T20:18:19.569Z,4.20
2022-11-03T20:23:32.987Z,3.55
2022-11-03T20:26:24.662Z,3.15
2022-11-03T20:30:04.717Z,3.45
2022-11-03T20:33:20.775Z,3.25
2022-11-03T20:36:07.381Z,2.97
2022-11-03T20:39:02.824Z,4.10
2022-11-03T20:41:51.191Z,3.78
2022-11-03T20:44:30.930Z,3.25
2022-11-03T20:47:04.264Z,3.10
2022-11-03T20:49:52.384Z,3.90
2022-11-03T20:52:43.808Z,3.28
2022-11-03T20:55:27.085Z,3.03
2022-11-03T20:57:56.999Z,3.42
2022-11-03T21:00:41.560Z,3.25
2022-11-03T21:03:37.544Z,3.05
2022-11-03T21:06:20.428Z,3.20
2022-11-03T21:08:52.463Z,2.90
2022-11-03T21:11:29.504Z,3.28
2022-11-03T21:14:03.775Z,3.00
2022-11-03T21:16:54.633Z,4.13
2022-11-03T21:22:53.240Z,2.90
2022-11-03T21:25:27.327Z,2.95
2022-11-03T21:27:56.756Z,4.38
2022-11-03T21:30:26.783Z,3.88
2022-11-03T21:33:02.049Z,3.90
2022-11-03T21:35:33.773Z,4.18
2022-11-03T21:38:07.674Z,4.32
2022-11-03T21:40:38.842Z,4.18
2022-11-03T21:43:25.275Z,4.85
2022-11-03T21:45:54.139Z,4.60
2022-11-03T21:48:40.726Z,5.22
2022-11-03T21:51:10.288Z,5.20
2022-11-03T21:53:54.539Z,6.05
2022-11-03T21:56:26.756Z,6.32
2022-11-03T21:58:59.302Z,6.15
2022-11-03T22:01:30.316Z,6.30
2022-11-03T22:04:00.172Z,10.43
2022-11-03T22:06:29.432Z,5.80
2022-11-03T22:08:58.494Z,6.22
2022-11-03T22:11:28.743Z,6.00
2022-11-03T22:13:59.525Z,6.15
2022-11-03T22:16:39.017Z,6.03
2022-11-03T22:19:28.183Z,6.30
2022-11-03T22:22:14.989Z,6.50
2022-11-03T22:25:01.701Z,6.47
2022-11-03T22:27:34.190Z,5.80
2022-11-03T22:30:21.155Z,6.43
2022-11-03T22:32:53.235Z,7.32
2022-11-03T22:35:40.695Z,6.60
2022-11-03T22:38:11.404Z,7.30
2022-11-03T22:40:58.385Z,7.05
2022-11-03T22:43:46.411Z,6.60
2022-11-03T22:46:19.093Z,6.55
2022-11-03T22:48:48.068Z,7.57
2022-11-03T22:51:20.120Z,6.55
2022-11-03T22:54:06.589Z,6.85
2022-11-03T22:56:35.978Z,6.72
2022-11-03T22:59:08.313Z,7.28
2022-11-03T23:01:38.431Z,6.72
2022-11-03T23:04:12.244Z,6.78
2022-11-03T23:09:12.354Z,6.68
2022-11-03T23:11:41.346Z,7.07
2022-11-03T23:14:12.765Z,6.95
2022-11-03T23:16:43.536Z,6.60
2022-11-03T23:19:31.276Z,6.65
2022-11-03T23:22:00.725Z,7.15
2022-11-03T23:24:46.309Z,6.40
2022-11-03T23:27:15.736Z,6.22
2022-11-03T23:29:45.885Z,7.13
2022-11-03T23:32:15.017Z,6.78
2022-11-03T23:34:46.354Z,6.97
2022-11-03T23:37:15.687Z,6.90
2022-11-03T23:39:44.951Z,6.45
2022-11-03T23:42:14.016Z,6.60
2022-11-03T23:45:00.467Z,6.45
2022-11-03T23:47:48.773Z,5.88
2022-11-03T23:50:17.846Z,6.45
2022-11-03T23:52:46.861Z,6.07
2022-11-03T23:55:15.782Z,7.05
2022-11-03T23:58:02.368Z,6.47
